COFK1: Verdigris River, Coffeyville Ks

Data processed at Fri May 24 2019 23:50


All information presented herein is the property of the government of the United States of America and may be revised or deleted at any time without prior notice.
Dissemination of this information without the expressed written consent of the Public Affairs Office, Tulsa District U.S. Army Corps of Engineers is strictly prohibited.
These data are gathered electronically and, as presented, have not undergone any form of quality control. These data are not guaranteed to be valid or correct.
Go to home page.
Go to station list.
Go to home page.

Upstream stations:

Downstream station:
Previous Day
Next Day
Current Day
    
SHEF ID:       COFK1     VERDIGRIS R AT COFFEYVILLE, KS
STATION TYPE:  
Regulating: Stage =    28.00, Flow =    31443

                STAGE  RIV-FLOW  BAT-LOAD
                   ft       cfs      volt
              Ccp-Rev   Ccp-Rev   Ccp-Rev
(US/Central)
05/24 00:00     33.68     49161     12.77
05/24 01:00     33.54     47837     12.71
05/24 02:00     33.51     47557     12.71
05/24 03:00     33.44     46909     12.71
05/24 04:00     33.29     45544     12.71
05/24 05:00     33.17     44476     12.65
05/24 06:00     33.10     43863     12.65
05/24 07:00     33.09     43776     12.71
05/24 08:00     32.95     42572     13.07
05/24 09:00     32.93     42402     13.30
05/24 10:00     32.78     41067     13.12
05/24 11:00     32.78     41067     13.00
05/24 12:00     32.68     40196     13.00
05/24 13:00     32.64     39999     13.48
05/24 14:00     32.55     39669     13.48
05/24 15:00     32.43     39232     13.53
05/24 16:00     32.39     39087     13.59
05/24 17:00     32.25     38581     13.59
05/24 18:00     32.17     38294     13.48
05/24 19:00     32.08     37973     12.95
05/24 20:00     32.03     37795     12.83
05/24 21:00     31.92     37405     12.71
05/24 22:00     31.88     37310     12.77
05/24 23:00     31.84     37231     12.71